createdAt,value
2018-07-27T00:00:20.833Z,4.30
2018-07-27T00:02:49.372Z,4.27
2018-07-27T00:05:17.907Z,4.60
2018-07-27T00:07:46.396Z,4.13
2018-07-27T00:10:16.209Z,4.37
2018-07-27T00:12:44.717Z,4.13
2018-07-27T00:15:13.363Z,4.57
2018-07-27T00:17:42.244Z,4.30
2018-07-27T00:20:10.791Z,4.43
2018-07-27T00:22:39.532Z,4.80
2018-07-27T00:25:08.103Z,4.97
2018-07-27T00:27:36.593Z,4.97
2018-07-27T00:30:06.126Z,4.27
2018-07-27T00:32:34.627Z,4.97
2018-07-27T00:35:02.845Z,4.23
2018-07-27T00:37:31.359Z,4.73
2018-07-27T00:39:59.853Z,4.67
2018-07-27T00:42:28.374Z,5.00
2018-07-27T00:44:56.865Z,4.53
2018-07-27T00:47:25.406Z,5.00
2018-07-27T00:49:53.925Z,4.60
2018-07-27T00:52:22.499Z,4.43
2018-07-27T00:54:52.371Z,5.53
2018-07-27T00:57:20.969Z,5.00
2018-07-27T00:59:49.499Z,5.00
2018-07-27T01:02:18.057Z,5.47
2018-07-27T01:04:46.278Z,5.30
2018-07-27T01:07:14.781Z,5.03
2018-07-27T01:09:43.303Z,5.17
2018-07-27T01:12:11.817Z,4.93
2018-07-27T01:14:40.339Z,4.97
2018-07-27T01:17:08.559Z,5.40
2018-07-27T01:19:37.078Z,5.77
2018-07-27T01:22:05.603Z,4.97
2018-07-27T01:24:34.128Z,5.80
2018-07-27T01:27:02.635Z,4.80
2018-07-27T01:29:31.165Z,5.13
2018-07-27T01:31:59.709Z,6.30
2018-07-27T01:34:27.913Z,5.70
2018-07-27T01:36:56.429Z,6.13
2018-07-27T01:39:24.913Z,5.30
2018-07-27T01:41:53.435Z,5.43
2018-07-27T01:44:23.363Z,5.83
2018-07-27T01:46:51.911Z,5.80
2018-07-27T01:49:20.876Z,6.60
2018-07-27T01:51:49.407Z,5.50
2018-07-27T01:54:17.923Z,5.87
2018-07-27T01:56:46.460Z,6.13
2018-07-27T01:59:14.694Z,6.30
2018-07-27T02:01:43.228Z,5.47
2018-07-27T02:04:11.731Z,5.53
2018-07-27T02:06:40.248Z,6.13
2018-07-27T02:09:09.861Z,5.73
2018-07-27T02:11:38.550Z,6.20
2018-07-27T02:14:07.102Z,6.67
2018-07-27T02:16:35.622Z,5.83
2018-07-27T02:19:04.174Z,6.60
2018-07-27T02:21:32.751Z,6.30
2018-07-27T02:24:01.243Z,6.07
2018-07-27T02:26:29.867Z,7.07
2018-07-27T02:28:58.434Z,5.93
2018-07-27T02:31:26.931Z,6.13
2018-07-27T02:33:55.183Z,6.57
2018-07-27T02:36:23.673Z,6.03
2018-07-27T02:38:52.807Z,6.60
2018-07-27T02:41:21.949Z,6.60
2018-07-27T02:43:52.055Z,7.70
2018-07-27T02:46:20.564Z,6.73
2018-07-27T02:48:49.066Z,7.43
2018-07-27T02:51:17.338Z,6.70
2018-07-27T02:53:45.568Z,6.67
2018-07-27T02:56:14.139Z,7.10
2018-07-27T02:58:42.668Z,7.00
2018-07-27T03:01:11.243Z,7.27
2018-07-27T03:03:39.991Z,8.23
2018-07-27T03:06:08.835Z,7.40
2018-07-27T03:08:37.081Z,7.10
2018-07-27T03:11:06.614Z,7.53
2018-07-27T03:13:34.889Z,7.87
2018-07-27T03:16:03.423Z,7.80
2018-07-27T03:18:31.965Z,6.87
2018-07-27T03:21:00.187Z,7.57
2018-07-27T03:23:28.805Z,7.73
2018-07-27T03:25:57.298Z,7.67
2018-07-27T03:28:25.532Z,7.17
2018-07-27T03:30:54.050Z,8.53
2018-07-27T03:33:24.032Z,7.50
2018-07-27T03:35:53.480Z,7.83
2018-07-27T03:38:21.806Z,7.77
2018-07-27T03:40:51.014Z,7.73
2018-07-27T03:43:19.508Z,7.93
2018-07-27T03:45:48.044Z,8.10
2018-07-27T03:48:16.528Z,8.90
2018-07-27T03:50:45.043Z,8.53
2018-07-27T03:53:13.565Z,8.27
2018-07-27T03:55:41.805Z,8.00
2018-07-27T03:58:10.355Z,8.73
2018-07-27T04:00:38.897Z,7.93
2018-07-27T04:03:07.415Z,8.43
2018-07-27T04:05:35.951Z,8.07
2018-07-27T04:08:04.487Z,8.23
2018-07-27T04:10:32.998Z,7.87
2018-07-27T04:13:01.495Z,8.00
2018-07-27T04:15:30.007Z,8.23
2018-07-27T04:18:00.275Z,8.63
2018-07-27T04:20:29.126Z,8.67
2018-07-27T04:22:57.655Z,8.60
2018-07-27T04:25:26.230Z,9.23
2018-07-27T04:27:54.817Z,8.73
2018-07-27T04:30:23.916Z,8.80
2018-07-27T04:32:52.523Z,9.53
2018-07-27T04:35:20.949Z,8.17
2018-07-27T04:37:49.533Z,8.60
2018-07-27T04:40:18.063Z,9.70
2018-07-27T04:42:46.620Z,8.30
2018-07-27T04:45:15.111Z,8.63
2018-07-27T04:47:43.623Z,8.73
2018-07-27T04:50:11.898Z,8.93
2018-07-27T04:52:40.130Z,8.93
2018-07-27T04:55:08.695Z,8.90
2018-07-27T04:57:37.281Z,9.17
2018-07-27T05:00:06.265Z,9.10
2018-07-27T05:02:34.750Z,8.87
2018-07-27T05:05:03.358Z,9.00
2018-07-27T05:07:31.878Z,8.60
2018-07-27T05:10:00.108Z,9.37
2018-07-27T05:12:28.689Z,9.13
2018-07-27T05:14:57.238Z,9.10
2018-07-27T05:17:25.911Z,9.00
2018-07-27T05:19:54.133Z,9.20
2018-07-27T05:22:23.554Z,9.80
2018-07-27T05:24:53.073Z,9.37
2018-07-27T05:27:22.369Z,8.37
2018-07-27T05:29:51.396Z,9.37
2018-07-27T05:32:20.942Z,9.07
2018-07-27T05:34:49.632Z,8.73
2018-07-27T05:37:18.209Z,8.70
2018-07-27T05:39:46.828Z,8.30
2018-07-27T05:42:15.121Z,9.23
2018-07-27T05:44:43.711Z,8.90
2018-07-27T05:47:12.344Z,9.43
2018-07-27T05:49:40.927Z,8.60
2018-07-27T05:52:09.705Z,8.87
2018-07-27T05:54:38.491Z,8.53
2018-07-27T05:57:07.241Z,9.83
2018-07-27T05:59:35.855Z,9.10
2018-07-27T06:02:04.523Z,8.78
2018-07-27T06:04:33.127Z,8.57
2018-07-27T06:07:01.705Z,9.67
2018-07-27T06:09:30.296Z,8.93
2018-07-27T06:11:58.899Z,8.85
2018-07-27T06:14:27.532Z,8.03
2018-07-27T06:16:56.165Z,8.45
2018-07-27T06:19:24.742Z,8.60
2018-07-27T06:21:54.313Z,8.88
2018-07-27T06:24:23.601Z,8.58
2018-07-27T06:26:53.213Z,8.33
2018-07-27T06:29:22.369Z,8.98
2018-07-27T06:31:51.519Z,8.60
2018-07-27T06:34:20.135Z,8.70
2018-07-27T06:36:49.418Z,8.65
2018-07-27T06:39:18.017Z,7.53
2018-07-27T06:41:46.582Z,8.25
2018-07-27T06:44:15.179Z,8.43
2018-07-27T06:46:43.821Z,8.85
2018-07-27T06:49:12.440Z,7.78
2018-07-27T06:51:41.027Z,8.93
2018-07-27T06:54:09.721Z,8.30
2018-07-27T06:56:38.306Z,7.70
2018-07-27T06:59:06.981Z,7.80
2018-07-27T07:01:35.669Z,8.10
2018-07-27T07:04:04.265Z,8.25
2018-07-27T07:06:32.908Z,8.50
2018-07-27T07:09:01.624Z,8.23
2018-07-27T07:11:30.295Z,8.35
2018-07-27T07:13:58.834Z,7.70
2018-07-27T07:16:27.436Z,8.00
2018-07-27T07:18:56.016Z,8.28
2018-07-27T07:21:26.246Z,8.33
2018-07-27T07:23:54.919Z,8.30
2018-07-27T07:26:24.368Z,7.80
2018-07-27T07:28:53.668Z,7.17
2018-07-27T07:31:22.831Z,7.95
2018-07-27T07:33:52.367Z,7.78
2018-07-27T07:36:21.516Z,8.65
2018-07-27T07:38:50.090Z,8.10
2018-07-27T07:41:18.354Z,7.25
2018-07-27T07:43:46.921Z,7.22
2018-07-27T07:46:15.495Z,6.92
2018-07-27T07:48:44.116Z,7.35
2018-07-27T07:51:12.418Z,6.67
2018-07-27T07:53:41.187Z,7.03
2018-07-27T07:56:09.470Z,7.33
2018-07-27T07:58:38.185Z,6.42
2018-07-27T08:01:06.881Z,6.00
2018-07-27T08:03:35.567Z,6.67
2018-07-27T08:06:04.188Z,6.17
2018-07-27T08:08:32.841Z,6.60
2018-07-27T08:11:01.424Z,6.33
2018-07-27T08:13:30.008Z,6.28
2018-07-27T08:16:07.012Z,6.12
2018-07-27T08:18:36.048Z,6.15
2018-07-27T08:21:04.789Z,6.20
2018-07-27T08:23:33.361Z,6.42
2018-07-27T08:26:41.201Z,6.35
2018-07-27T08:29:11.388Z,6.03
2018-07-27T08:31:42.402Z,5.72
2018-07-27T08:34:11.473Z,6.00
2018-07-27T08:36:40.199Z,5.80
2018-07-27T08:39:10.122Z,5.80
2018-07-27T08:41:39.380Z,5.85
2018-07-27T08:44:08.854Z,6.42
2018-07-27T08:46:37.744Z,6.45
2018-07-27T08:49:06.349Z,6.58
2018-07-27T08:51:34.711Z,6.12
2018-07-27T08:54:03.256Z,6.25
2018-07-27T08:56:33.125Z,5.65
2018-07-27T08:59:01.619Z,5.87
2018-07-27T09:01:30.233Z,6.03
2018-07-27T09:03:59.032Z,5.92
2018-07-27T09:06:27.799Z,5.80
2018-07-27T09:08:56.420Z,6.00
2018-07-27T09:11:25.330Z,5.62
2018-07-27T09:13:54.101Z,5.92
2018-07-27T09:16:28.613Z,6.03
2018-07-27T09:18:57.544Z,5.97
2018-07-27T09:21:26.714Z,6.05
2018-07-27T09:23:55.762Z,6.08
2018-07-27T09:26:24.462Z,5.80
2018-07-27T09:28:53.810Z,5.90
2018-07-27T09:31:22.740Z,6.12
2018-07-27T09:33:51.657Z,6.33
2018-07-27T09:36:20.895Z,5.97
2018-07-27T09:38:49.986Z,6.08
2018-07-27T09:41:19.419Z,5.67
2018-07-27T09:43:49.277Z,6.17
2018-07-27T09:46:17.887Z,6.03
2018-07-27T09:48:53.796Z,5.83
2018-07-27T09:51:24.191Z,5.58
2018-07-27T09:53:53.630Z,5.90
2018-07-27T09:59:13.774Z,6.50
2018-07-27T10:01:42.324Z,5.60
2018-07-27T10:04:11.009Z,5.42
2018-07-27T10:06:39.587Z,5.53
2018-07-27T10:09:08.331Z,5.45
2018-07-27T10:11:36.914Z,5.65
2018-07-27T10:14:05.472Z,6.33
2018-07-27T10:16:33.750Z,5.95
2018-07-27T10:19:02.020Z,6.35
2018-07-27T10:21:30.591Z,5.55
2018-07-27T10:23:59.152Z,5.95
2018-07-27T10:26:27.678Z,5.80
2018-07-27T10:28:56.195Z,5.60
2018-07-27T10:31:24.850Z,5.87
2018-07-27T10:33:54.663Z,5.53
2018-07-27T10:36:23.070Z,5.90
2018-07-27T10:38:51.992Z,5.03
2018-07-27T10:41:21.027Z,5.22
2018-07-27T10:43:49.541Z,5.10
2018-07-27T10:46:18.098Z,5.33
2018-07-27T10:48:46.667Z,5.00
2018-07-27T10:51:15.238Z,5.00
2018-07-27T10:53:43.786Z,4.95
2018-07-27T10:56:12.349Z,4.53
2018-07-27T10:58:40.892Z,4.47
2018-07-27T11:01:15.419Z,4.50
2018-07-27T11:03:44.061Z,4.20
2018-07-27T11:06:12.606Z,4.08
2018-07-27T11:08:41.252Z,3.60
2018-07-27T11:11:09.843Z,4.20
2018-07-27T11:13:38.365Z,3.58
2018-07-27T11:16:06.976Z,3.55
2018-07-27T11:18:35.583Z,3.40
2018-07-27T11:21:04.490Z,3.33
2018-07-27T11:23:33.037Z,3.83
2018-07-27T11:26:01.600Z,3.35
2018-07-27T11:28:29.973Z,3.12
2018-07-27T11:30:58.581Z,3.65
2018-07-27T11:33:27.120Z,4.00
2018-07-27T11:35:55.665Z,3.90
2018-07-27T11:38:24.260Z,3.83
2018-07-27T11:40:54.040Z,3.87
2018-07-27T11:43:22.790Z,4.03
2018-07-27T11:45:51.512Z,4.00
2018-07-27T11:48:20.259Z,4.10
2018-07-27T11:50:48.928Z,3.80
2018-07-27T11:53:17.632Z,3.62
2018-07-27T11:55:46.335Z,3.65
2018-07-27T11:58:15.137Z,3.90
2018-07-27T12:00:43.478Z,3.70
2018-07-27T12:03:12.148Z,3.60
2018-07-27T12:05:40.794Z,3.17
2018-07-27T12:08:09.659Z,3.10
2018-07-27T12:10:38.211Z,3.98
2018-07-27T12:13:06.991Z,3.37
2018-07-27T12:15:35.704Z,3.80
2018-07-27T12:18:04.360Z,3.60
2018-07-27T12:20:33.566Z,3.30
2018-07-27T12:23:02.198Z,3.50
2018-07-27T12:25:31.996Z,3.60
2018-07-27T12:28:00.290Z,3.47
2018-07-27T12:30:29.198Z,3.72
2018-07-27T12:32:57.945Z,3.58
2018-07-27T12:35:26.323Z,3.12
2018-07-27T12:37:55.189Z,3.47
2018-07-27T12:40:24.569Z,3.33
2018-07-27T12:42:53.774Z,3.70
2018-07-27T12:45:22.606Z,3.92
2018-07-27T12:47:51.521Z,3.98
2018-07-27T12:50:20.210Z,3.92
2018-07-27T12:52:49.004Z,3.83
2018-07-27T12:55:17.619Z,4.15
2018-07-27T12:57:46.294Z,3.58
2018-07-27T13:00:15.048Z,3.40
2018-07-27T13:02:43.651Z,3.22
2018-07-27T13:05:12.351Z,4.62
2018-07-27T13:07:40.931Z,4.05
2018-07-27T13:10:09.612Z,3.52
2018-07-27T13:12:38.922Z,3.47
2018-07-27T13:15:08.555Z,3.17
2018-07-27T13:17:37.319Z,3.70
2018-07-27T13:20:06.732Z,3.40
2018-07-27T13:22:35.457Z,3.30
2018-07-27T13:25:03.854Z,3.27
2018-07-27T13:27:32.466Z,3.60
2018-07-27T13:30:01.035Z,3.08
2018-07-27T13:32:30.294Z,3.72
2018-07-27T13:34:59.885Z,3.42
2018-07-27T13:40:02.330Z,3.75
2018-07-27T13:42:32.283Z,3.33
2018-07-27T13:45:00.869Z,3.87
2018-07-27T13:47:30.890Z,3.65
2018-07-27T13:50:00.581Z,3.67
2018-07-27T13:52:30.298Z,3.50
2018-07-27T13:54:59.033Z,3.87
2018-07-27T13:57:27.665Z,3.17
2018-07-27T13:59:56.294Z,3.65
2018-07-27T14:02:25.601Z,3.30
2018-07-27T14:04:54.320Z,3.30
2018-07-27T14:07:22.865Z,3.20
2018-07-27T14:09:51.103Z,2.75
2018-07-27T14:12:19.717Z,2.87
2018-07-27T14:14:47.963Z,3.77
2018-07-27T14:17:16.486Z,3.47
2018-07-27T14:19:44.983Z,3.08
2018-07-27T14:22:13.545Z,3.17
2018-07-27T14:24:42.081Z,3.08
2018-07-27T14:27:10.631Z,3.65
2018-07-27T14:29:39.134Z,3.30
2018-07-27T14:32:07.922Z,3.05
2018-07-27T14:34:36.683Z,3.42
2018-07-27T14:37:05.669Z,3.30
2018-07-27T14:39:34.361Z,3.45
2018-07-27T14:42:04.121Z,3.80
2018-07-27T14:44:33.128Z,3.22
2018-07-27T14:47:35.102Z,3.67
2018-07-27T14:50:04.072Z,3.30
2018-07-27T14:52:33.785Z,3.10
2018-07-27T14:55:05.858Z,3.62
2018-07-27T14:57:34.763Z,3.25
2018-07-27T15:00:03.767Z,3.25
2018-07-27T15:02:33.458Z,3.65
2018-07-27T15:05:15.146Z,3.27
2018-07-27T15:07:50.371Z,3.45
2018-07-27T15:10:19.234Z,3.62
2018-07-27T15:12:48.258Z,3.67
2018-07-27T15:15:17.688Z,3.60
2018-07-27T15:17:46.826Z,3.40
2018-07-27T15:20:17.647Z,3.22
2018-07-27T15:22:48.102Z,3.77
2018-07-27T15:25:16.941Z,3.42
2018-07-27T15:27:46.740Z,3.47
2018-07-27T15:30:15.886Z,3.87
2018-07-27T15:32:44.643Z,3.72
2018-07-27T15:35:13.477Z,3.70
2018-07-27T15:37:42.543Z,4.20
2018-07-27T15:40:11.271Z,3.50
2018-07-27T15:42:40.327Z,4.22
2018-07-27T15:45:09.146Z,3.98
2018-07-27T15:47:37.830Z,4.03
2018-07-27T15:50:06.828Z,3.30
2018-07-27T15:52:36.247Z,4.08
2018-07-27T15:55:05.208Z,3.75
2018-07-27T15:57:34.798Z,3.90
2018-07-27T16:00:03.888Z,3.77
2018-07-27T16:02:33.041Z,3.27
2018-07-27T16:05:01.906Z,3.52
2018-07-27T16:07:30.987Z,3.58
2018-07-27T16:09:59.720Z,3.65
2018-07-27T16:12:28.581Z,3.87
2018-07-27T16:14:57.266Z,3.52
2018-07-27T16:26:35.958Z,4.12
2018-07-27T16:29:04.739Z,4.53
2018-07-27T16:31:33.430Z,4.20
2018-07-27T16:34:02.190Z,4.25
2018-07-27T16:36:30.976Z,4.22
2018-07-27T16:38:59.631Z,3.80
2018-07-27T16:41:28.390Z,3.95
2018-07-27T16:43:57.101Z,3.85
2018-07-27T16:46:25.819Z,3.72
2018-07-27T16:48:54.516Z,4.00
2018-07-27T16:51:23.236Z,3.85
2018-07-27T16:53:51.945Z,3.90
2018-07-27T16:56:21.935Z,3.70
2018-07-27T16:58:50.972Z,3.37
2018-07-27T17:01:21.933Z,4.03
2018-07-27T17:03:50.691Z,3.70
2018-07-27T17:06:19.798Z,3.83
2018-07-27T17:08:49.494Z,3.80
2018-07-27T17:11:18.809Z,3.60
2018-07-27T17:13:51.334Z,3.40
2018-07-27T17:16:19.639Z,3.22
2018-07-27T17:18:49.387Z,3.95
2018-07-27T17:21:18.862Z,3.30
2018-07-27T17:23:49.086Z,3.95
2018-07-27T17:26:19.758Z,3.77
2018-07-27T17:28:50.090Z,4.15
2018-07-27T17:31:19.660Z,4.35
2018-07-27T17:39:55.739Z,4.65
2018-07-27T18:06:23.262Z,5.12
2018-07-27T18:08:53.830Z,5.03
2018-07-27T18:26:40.642Z,6.12
2018-07-27T18:41:14.140Z,7.28
2018-07-27T18:43:42.819Z,7.97
2018-07-27T18:46:11.569Z,6.42
2018-07-27T18:48:40.336Z,7.50
2018-07-27T18:51:10.302Z,6.50
2018-07-27T18:53:40.044Z,7.55
2018-07-27T18:56:09.734Z,6.65
2018-07-27T18:58:41.895Z,7.08
2018-07-27T19:01:10.604Z,7.55
2018-07-27T19:03:40.261Z,7.37
2018-07-27T19:06:10.044Z,7.70
2018-07-27T19:08:42.510Z,7.50
2018-07-27T19:11:33.533Z,7.78
2018-07-27T19:14:02.229Z,6.83
2018-07-27T19:16:31.048Z,7.62
2018-07-27T19:18:59.687Z,7.65
2018-07-27T19:21:28.537Z,6.60
2018-07-27T19:23:57.301Z,7.45
2018-07-27T19:26:26.100Z,6.55
2018-07-27T19:28:54.832Z,7.47
2018-07-27T19:31:23.626Z,7.10
2018-07-27T19:33:52.302Z,6.40
2018-07-27T19:36:21.094Z,6.87
2018-07-27T19:38:49.848Z,7.20
2018-07-27T19:41:18.619Z,6.90
2018-07-27T19:43:47.435Z,7.40
2018-07-27T19:46:16.178Z,6.70
2018-07-27T19:48:44.874Z,7.60
2018-07-27T19:51:13.604Z,7.25
2018-07-27T19:53:41.970Z,7.17
2018-07-27T19:56:11.477Z,7.40
2018-07-27T19:58:41.470Z,18.57
2018-07-27T20:01:10.875Z,9.40
2018-07-27T20:03:40.975Z,8.23
2018-07-27T20:06:10.772Z,7.50
2018-07-27T20:08:40.589Z,8.00
2018-07-27T20:11:09.949Z,8.30
2018-07-27T20:13:40.166Z,8.23
2018-07-27T20:16:09.568Z,8.00
2018-07-27T20:18:38.798Z,8.77
2018-07-27T20:21:08.163Z,8.50
2018-07-27T20:23:36.906Z,7.63
2018-07-27T20:26:06.532Z,8.07
2018-07-27T20:28:35.246Z,8.77
2018-07-27T20:31:03.884Z,16.83
2018-07-27T20:33:32.694Z,8.13
2018-07-27T20:36:01.274Z,7.67
2018-07-27T20:38:29.871Z,7.90
2018-07-27T20:40:58.749Z,8.83
2018-07-27T20:43:27.493Z,8.10
2018-07-27T20:45:56.223Z,8.40
2018-07-27T20:48:24.996Z,8.63
2018-07-27T20:50:54.120Z,9.13
2018-07-27T20:53:22.704Z,8.07
2018-07-27T20:55:51.231Z,8.23
2018-07-27T20:58:19.902Z,8.80
2018-07-27T21:00:48.209Z,8.90
2018-07-27T21:03:16.750Z,8.67
2018-07-27T21:05:45.137Z,8.73
2018-07-27T21:08:13.366Z,8.90
2018-07-27T21:10:41.919Z,8.20
2018-07-27T21:13:11.864Z,8.53
2018-07-27T21:15:40.560Z,7.97
2018-07-27T21:18:10.106Z,8.93
2018-07-27T21:20:39.362Z,8.97
2018-07-27T21:23:08.291Z,9.67
2018-07-27T21:25:36.557Z,8.63
2018-07-27T21:28:04.813Z,9.63
2018-07-27T21:30:33.382Z,9.30
2018-07-27T21:33:01.915Z,9.80
2018-07-27T21:35:30.489Z,9.03
2018-07-27T21:37:58.738Z,9.40
2018-07-27T21:40:27.300Z,8.90
2018-07-27T21:42:55.806Z,9.17
2018-07-27T21:45:24.361Z,9.70
2018-07-27T21:47:52.879Z,9.13
2018-07-27T21:50:21.133Z,8.73
2018-07-27T21:52:49.659Z,10.30
2018-07-27T21:55:18.218Z,9.57
2018-07-27T21:57:46.828Z,10.03
2018-07-27T22:00:15.360Z,9.73
2018-07-27T22:02:43.881Z,9.73
2018-07-27T22:05:12.216Z,9.80
2018-07-27T22:07:42.160Z,9.77
2018-07-27T22:10:10.434Z,9.87
2018-07-27T22:12:40.091Z,9.50
2018-07-27T22:15:16.430Z,9.07
2018-07-27T22:17:45.596Z,10.00
2018-07-27T22:20:14.263Z,10.00
2018-07-27T22:22:42.792Z,9.97
2018-07-27T22:25:11.298Z,9.77
2018-07-27T22:27:39.979Z,9.50
2018-07-27T22:30:09.853Z,9.93
2018-07-27T22:32:39.567Z,10.03
2018-07-27T22:35:08.571Z,10.33
2018-07-27T22:37:39.501Z,10.83
2018-07-27T22:40:10.063Z,10.57
2018-07-27T22:42:40.800Z,10.23
2018-07-27T22:45:10.846Z,10.37
2018-07-27T22:47:40.253Z,9.97
2018-07-27T22:50:09.280Z,10.67
2018-07-27T22:52:41.749Z,9.80
2018-07-27T22:55:12.449Z,9.33
2018-07-27T22:57:41.848Z,9.60
2018-07-27T23:00:11.995Z,9.93
2018-07-27T23:02:41.157Z,10.67
2018-07-27T23:05:11.169Z,10.93
2018-07-27T23:07:40.911Z,11.00
2018-07-27T23:10:10.606Z,10.37
2018-07-27T23:12:39.521Z,10.93
2018-07-27T23:15:10.575Z,10.60
2018-07-27T23:17:39.542Z,11.30
2018-07-27T23:20:10.341Z,10.67
2018-07-27T23:22:39.716Z,9.70
2018-07-27T23:25:08.805Z,11.07
2018-07-27T23:27:37.454Z,10.93
2018-07-27T23:30:07.739Z,10.57
2018-07-27T23:32:36.284Z,10.80
2018-07-27T23:35:04.716Z,11.07
2018-07-27T23:37:34.706Z,10.47
2018-07-27T23:40:03.474Z,9.73
2018-07-27T23:42:33.578Z,10.47
2018-07-27T23:45:02.455Z,10.47
2018-07-27T23:47:31.299Z,9.77
2018-07-27T23:49:59.954Z,11.57
2018-07-27T23:52:29.025Z,10.77
2018-07-27T23:54:57.734Z,10.73
2018-07-27T23:57:26.417Z,11.00
2018-07-27T23:59:55.286Z,10.63
